Terminal Aerodrome Forecast
Issued by NWS Wakefield, VA

Home | Current Version | Previous Version | Text Only | Print | Product List | Glossary On
Versions: 1 2 3 4 5 6 7 8 9 10 11 12 13 14 15 16 17 18 19 20
000
FTUS41 KAKQ 230500
TAFSBY
TAF
KSBY 230522Z 2306/2406 02004KT P6SM BKN250
     FM231400 03010KT P6SM FEW040 SCT200
     FM240000 06004KT P6SM SCT200=

USA.gov is the U.S. government's official web portal to all federal, state and local government web resources and services.